WMKN

Details ICAO WMKN (TGG)
Name Kuala Terengganu Sultan Mahmud
Region Malaysia (Peninsular Malaysia)
Timezone Asia/Kuala_Lumpur (UTC+8.0)
Plans Departing 38
Arriving 32
Stats Elevation 21 ft / 6 m (AMSL)
Location 5.382640° 103.103000°
Runways 1
Magnetic Variation 0.040° W
Sunrise 2018-12-17 23:10:59 UTC / 2018-12-18 07:10:59 Local
Sunset 2018-12-18 10:59:36 UTC / 2018-12-18 18:59:36 Local
Advertisement - Login to hide

Runways

ID Width Length Bearing (true/mag) Surface Threshold Overrun Markings Lighting
04 150 ft / 46 m 6,580 ft / 2,006 m 44.37° / 44.41° ASPHALT 0 ft / 0 m 230 ft / 70 m APP EDGE THRESHOLD
22 150 ft / 46 m 6,580 ft / 2,006 m 224.37° / 224.41° ASPHALT 0 ft / 0 m 218 ft / 66 m APP EDGE THRESHOLD

Map

Weather


0- 5 10 15 20 25 30 35+ Temperature / °C

Clouds and Precipitation
Forecast for 2018-12-18 12:00 UTC. Updated 5 hours ago

Ground ~20,000 ft ~40,000 ft Winds

METAR

WMKN 181400Z VRB01KT 8000 -RA FEW008 SCT022 BKN150 27/26 Q1012 RERA

TAF

Not found

Frequencies

Ground 121.60 MHz TERENGGANU GND
Tower 123.60 MHz TERENGGANU TWR
Warning: Do not use this data for real-world aviation or navigation. No guarantee of current accuracy is given.